Terminal Aerodrome Forecast
Issued by NWS

Home | Current Version | Previous Version | Graphics & Text | Print | Product List | Glossary On
Versions: 1 2 3 4 5 6 7 8 9 10 11 12 13 14 15 16 17
000
FTUS43 KGRB 201144
TAFRHI
TAF
KRHI 201144Z 2012/2112 08006KT P6SM BKN250
     FM201400 09010G18KT P6SM BKN120
     FM201900 10013G24KT P6SM -SHRA BKN025
     FM202100 09012G21KT 3SM -SHRA BR OVC008
     FM210300 10011KT 4SM -SHRA BR OVC003=

USA.gov is the U.S. government's official web portal to all federal, state and local government web resources and services.